Time;durP1;ratioP1;P1;durP2;ratioP2;P2;SDS_P1;SDS_P2;PMS_P1;PMS_P2;Temp;Humidity;BMP_temperature;BMP_pressure;BME280_temperature;BME280_humidity;BME280_pressure;Samples;Min_cycle;Max_cycle;Signal;HPM_P1;HPM_P2
2024/04/08 00:02:02;;;;;;;;;;;;;;;-144.99;100.00;52342.09;4975328;28;20418;-64
2024/04/08 00:04:27;;;;;;;;;;;;;;;-144.99;100.00;52342.09;4968873;28;19985;-68
2024/04/08 00:06:54;;;;;;;;;;;;;;;-144.99;100.00;52352.28;4977745;28;20327;-67
2024/04/08 00:09:19;;;;;;;;;;;;;;;-144.99;100.00;52289.13;4982711;28;20411;-68
2024/04/08 00:11:46;;;;;;;;;;;;;;;-144.99;100.00;52336.00;4979093;28;19925;-67
2024/04/08 00:14:15;;;;;;;;;;;;;;;-144.99;100.00;52354.34;4983676;28;19930;-69
2024/04/08 00:16:42;;;;;;;;;;;;;;;-144.99;100.00;52338.03;4969500;28;19930;-69
2024/04/08 00:19:07;;;;;;;;;;;;;;;-144.99;100.00;52342.09;4975349;28;19926;-67
2024/04/08 00:21:34;;;;;;;;;;;;;;;-144.99;100.00;52333.94;4971459;28;19930;-67
2024/04/08 00:23:59;;;;;;;;;;;;;;;-144.99;100.00;52348.22;4973078;28;19926;-66
2024/04/08 00:26:26;;;;;;;;;;;;;;;-144.99;100.00;52348.22;4975986;28;19937;-66
2024/04/08 00:28:51;;;;;;;;;;;;;;;-144.99;100.00;52370.63;4968251;28;19958;-66
2024/04/08 00:31:19;;;;;;;;;;;;;;;-144.99;100.00;52374.72;4973957;28;19931;-72
2024/04/08 00:33:44;;;;;;;;;;;;;;;-144.99;100.00;52313.56;4972327;28;19946;-72
2024/04/08 00:36:11;;;;;;;;;;;;;;;-144.99;100.00;52370.63;4974832;28;19958;-71
2024/04/08 00:38:36;;;;;;;;;;;;;;;-144.99;100.00;52338.03;4974066;28;19966;-70
2024/04/08 00:41:03;;;;;;;;;;;;;;;-144.99;100.00;52338.03;4981104;28;19980;-70
2024/04/08 00:43:28;;;;;;;;;;;;;;;-144.99;100.00;52403.25;4977369;28;19926;-72
2024/04/08 00:45:55;;;;;;;;;;;;;;;-144.99;100.00;52333.94;4969363;28;19936;-71
2024/04/08 00:48:22;;;;;;;;;;;;;;;-144.99;100.00;52362.50;4972321;28;20050;-71
2024/04/08 00:50:50;;;;;;;;;;;;;;;-144.99;100.00;52338.03;4974353;28;19925;-69
2024/04/08 00:53:15;;;;;;;;;;;;;;;-144.99;100.00;52348.22;4973128;28;19930;-68
2024/04/08 00:55:42;;;;;;;;;;;;;;;-144.99;100.00;52313.56;4972707;28;19927;-69
2024/04/08 00:58:08;;;;;;;;;;;;;;;-144.99;100.00;52329.88;4968280;28;19953;-71
2024/04/08 01:00:35;;;;;;;;;;;;;;;-144.99;100.00;52350.25;4968554;28;19973;-72
2024/04/08 01:03:03;;;;;;;;;;;;;;;-144.99;100.00;52340.06;4981000;28;20049;-72
2024/04/08 01:05:31;;;;;;;;;;;;;;;-144.99;100.00;52338.03;4973999;28;19965;-67
2024/04/08 01:07:57;;;;;;;;;;;;;;;-144.99;100.00;52313.56;4963570;28;19989;-67
2024/04/08 01:10:23;;;;;;;;;;;;;;;-144.99;100.00;52370.63;4976291;28;20020;-64
2024/04/08 01:12:49;;;;;;;;;;;;;;;-144.99;100.00;52346.19;4981123;28;20400;-64
2024/04/08 01:15:16;;;;;;;;;;;;;;;-144.99;100.00;52338.03;4980130;28;19930;-70
2024/04/08 01:17:42;;;;;;;;;;;;;;;-144.99;100.00;52329.88;4964258;28;19930;-65
2024/04/08 01:20:08;;;;;;;;;;;;;;;-144.99;100.00;52344.16;4980900;28;19934;-65
2024/04/08 01:22:35;;;;;;;;;;;;;;;-144.99;100.00;52352.28;4967987;28;19926;-63
2024/04/08 01:25:04;;;;;;;;;;;;;;;-144.99;100.00;52342.09;4966737;28;19926;-64
2024/04/08 01:27:30;;;;;;;;;;;;;;;-144.99;100.00;52342.09;4966111;28;19952;-64
2024/04/08 01:29:57;;;;;;;;;;;;;;;-144.99;100.00;52346.19;4969298;28;20415;-65
2024/04/08 01:32:22;;;;;;;;;;;;;;;-144.99;100.00;52358.41;4970310;28;20481;-65
2024/04/08 01:34:49;;;;;;;;;;;;;;;-144.99;100.00;52313.56;4971451;28;19963;-64
2024/04/08 01:37:14;;;;;;;;;;;;;;;-144.99;100.00;52338.03;4957511;28;19958;-64
2024/04/08 01:39:41;;;;;;;;;;;;;;;-144.99;100.00;52338.03;4976612;28;19964;-67
2024/04/08 01:42:07;;;;;;;;;;;;;;;-144.99;100.00;52342.09;4965377;28;20025;-67
2024/04/08 01:44:34;;;;;;;;;;;;;;;-144.99;100.00;52305.41;4951778;28;20017;-67
2024/04/08 01:46:59;;;;;;;;;;;;;;;-144.99;100.00;52333.94;4964341;28;20013;-67
2024/04/08 01:49:27;;;;;;;;;;;;;;;-144.99;100.00;52342.09;4973518;28;20013;-67
2024/04/08 01:51:53;;;;;;;;;;;;;;;-144.99;100.00;52362.50;4975349;28;20021;-61
2024/04/08 01:54:23;;;;;;;;;;;;;;;-144.99;100.00;52327.84;4981234;28;20121;-61
2024/04/08 01:56:49;;;;;;;;;;;;;;;-144.99;100.00;52338.03;4973472;28;19926;-62
2024/04/08 01:59:17;;;;;;;;;;;;;;;-144.99;100.00;52321.72;4971783;28;20032;-62
2024/04/08 02:01:42;;;;;;;;;;;;;;;-144.99;100.00;52333.94;4974499;28;19926;-61
2024/04/08 02:04:09;;;;;;;;;;;;;;;-144.99;100.00;52293.19;4972452;28;20447;-61
2024/04/08 02:06:34;;;;;;;;;;;;;;;-144.99;100.00;52333.94;4979105;28;19954;-60
2024/04/08 02:09:01;;;;;;;;;;;;;;;-144.99;100.00;52325.81;4976834;28;20001;-63
2024/04/08 02:11:27;;;;;;;;;;;;;;;-144.99;100.00;52362.50;4971654;28;19926;-63
2024/04/08 02:13:53;;;;;;;;;;;;;;;-144.99;100.00;52358.41;4981828;28;20376;-64
2024/04/08 02:16:20;;;;;;;;;;;;;;;-144.99;100.00;52333.94;4960958;28;19973;-63
2024/04/08 02:18:50;;;;;;;;;;;;;;;-144.99;100.00;52317.66;4982475;28;19965;-66
2024/04/08 02:21:16;;;;;;;;;;;;;;;-144.99;100.00;52295.22;4971278;28;19985;-67
2024/04/08 02:23:42;;;;;;;;;;;;;;;-144.99;100.00;52276.88;4963780;28;19930;-66
2024/04/08 02:26:08;;;;;;;;;;;;;;;-144.99;100.00;52333.94;4976425;28;19989;-65
2024/04/08 02:28:34;;;;;;;;;;;;;;;-144.99;100.00;52293.19;4971249;28;19969;-64
2024/04/08 02:31:00;;;;;;;;;;;;;;;-144.99;100.00;52338.03;4966791;28;20005;-64
2024/04/08 02:33:28;;;;;;;;;;;;;;;-144.99;100.00;52305.41;4969061;28;19988;-64
2024/04/08 02:35:53;;;;;;;;;;;;;;;-144.99;100.00;52321.72;4978181;28;20016;-64
2024/04/08 02:38:21;;;;;;;;;;;;;;;-144.99;100.00;52315.59;4967192;28;19957;-64
2024/04/08 02:40:46;;;;;;;;;;;;;;;-144.99;100.00;52380.84;4962834;28;20391;-69
2024/04/08 02:43:13;;;;;;;;;;;;;;;-144.99;100.00;52344.16;4972619;28;19932;-68
2024/04/08 02:45:38;;;;;;;;;;;;;;;-144.99;100.00;52329.88;4974350;28;19976;-67
2024/04/08 02:48:05;;;;;;;;;;;;;;;-144.99;100.00;52333.94;4977281;28;19965;-67
2024/04/08 02:50:32;;;;;;;;;;;;;;;-144.99;100.00;52346.19;4974820;28;20012;-67
2024/04/08 02:52:59;;;;;;;;;;;;;;;-144.99;100.00;52313.56;4968173;28;19977;-68
2024/04/08 02:55:24;;;;;;;;;;;;;;;-144.99;100.00;52362.50;4970282;28;20120;-66
2024/04/08 02:57:50;;;;;;;;;;;;;;;-144.99;100.00;52350.25;4976073;28;20028;-68
2024/04/08 03:00:16;;;;;;;;;;;;;;;-144.99;100.00;52309.50;4962457;28;20030;-67
2024/04/08 03:02:45;;;;;;;;;;;;;;;-144.99;100.00;52338.03;4969843;28;20107;-68
2024/04/08 03:05:10;;;;;;;;;;;;;;;-144.99;100.00;52321.72;4966884;28;19926;-68
2024/04/08 03:07:38;;;;;;;;;;;;;;;-144.99;100.00;52323.75;4963595;28;19938;-71
2024/04/08 03:10:04;;;;;;;;;;;;;;;-144.99;100.00;52346.19;4975794;28;19965;-71
2024/04/08 03:12:31;;;;;;;;;;;;;;;-144.99;100.00;52268.72;4975856;28;19933;-71
2024/04/08 03:14:57;;;;;;;;;;;;;;;-144.99;100.00;52329.88;4971945;28;20022;-71
2024/04/08 03:17:23;;;;;;;;;;;;;;;-144.99;100.00;52338.03;4969037;28;20327;-71
2024/04/08 03:19:50;;;;;;;;;;;;;;;-144.99;100.00;52323.75;4976361;28;20000;-70
2024/04/08 03:22:17;;;;;;;;;;;;;;;-144.99;100.00;52299.31;4974818;28;19960;-70
2024/04/08 03:24:44;;;;;;;;;;;;;;;-144.99;100.00;52311.53;4969332;28;19973;-70
2024/04/08 03:27:10;;;;;;;;;;;;;;;-144.99;100.00;52342.09;4968303;28;19933;-70
2024/04/08 03:29:36;;;;;;;;;;;;;;;-144.99;100.00;52297.25;4974882;28;19965;-70
2024/04/08 03:32:03;;;;;;;;;;;;;;;-144.99;100.00;52333.94;4978167;28;20024;-71
2024/04/08 03:34:28;;;;;;;;;;;;;;;-144.99;100.00;52344.16;4969842;28;19926;-71
2024/04/08 03:36:54;;;;;;;;;;;;;;;-144.99;100.00;52301.34;4967531;28;20029;-71
2024/04/08 03:39:21;;;;;;;;;;;;;;;-144.99;100.00;52342.09;4967990;28;19988;-71
2024/04/08 03:41:50;;;;;;;;;;;;;;;-144.99;100.00;52346.19;4974541;28;20013;-70
2024/04/08 03:44:16;;;;;;;;;;;;;;;-144.99;100.00;52362.50;4973560;28;19973;-72
2024/04/08 03:46:43;;;;;;;;;;;;;;;-144.99;100.00;52303.38;4968155;28;19984;-71
2024/04/08 03:49:08;;;;;;;;;;;;;;;-144.99;100.00;52352.28;4969120;28;19969;-71
2024/04/08 03:51:35;;;;;;;;;;;;;;;-144.99;100.00;52325.81;4969456;28;19973;-72
2024/04/08 03:54:00;;;;;;;;;;;;;;;-144.99;100.00;52333.94;4962927;28;19937;-74
2024/04/08 03:56:27;;;;;;;;;;;;;;;-144.99;100.00;52350.25;4965873;28;20017;-74
2024/04/08 03:58:54;;;;;;;;;;;;;;;-144.99;100.00;52346.19;4969803;28;19969;-74
2024/04/08 04:01:20;;;;;;;;;;;;;;;-144.99;100.00;52323.75;4956111;28;20059;-66
2024/04/08 04:03:47;;;;;;;;;;;;;;;-144.99;100.00;52329.88;4969555;28;19930;-67
2024/04/08 04:06:13;;;;;;;;;;;;;;;-144.99;100.00;52325.81;4960466;28;20296;-67
2024/04/08 04:08:39;;;;;;;;;;;;;;;-144.99;100.00;52350.25;4967508;28;20100;-67
2024/04/08 04:11:05;;;;;;;;;;;;;;;-144.99;100.00;52333.94;4966900;28;20033;-66
2024/04/08 04:13:32;;;;;;;;;;;;;;;-144.99;100.00;52317.66;4958690;28;19945;-67
2024/04/08 04:16:00;;;;;;;;;;;;;;;-144.99;100.00;52342.09;4961568;28;19980;-71
2024/04/08 04:18:27;;;;;;;;;;;;;;;-144.99;100.00;52338.03;4959851;28;19941;-71
2024/04/08 04:20:52;;;;;;;;;;;;;;;-144.99;100.00;52315.59;4967942;28;19949;-71
2024/04/08 04:23:19;;;;;;;;;;;;;;;-144.99;100.00;52321.72;4970673;28;19930;-71
2024/04/08 04:25:48;;;;;;;;;;;;;;;-144.99;100.00;52325.81;4962637;28;19953;-71
2024/04/08 04:28:14;;;;;;;;;;;;;;;-144.99;100.00;52407.31;4967383;28;20308;-70
2024/04/08 04:30:40;;;;;;;;;;;;;;;-144.99;100.00;52374.72;4973753;28;19981;-70
2024/04/08 04:33:12;;;;;;;;;;;;;;;-144.99;100.00;52317.66;4971007;28;20461;-67
2024/04/08 04:35:38;;;;;;;;;;;;;;;-144.99;100.00;52313.56;4970543;28;19938;-67
2024/04/08 04:38:05;;;;;;;;;;;;;;;-144.99;100.00;52368.59;4966234;28;19933;-66
2024/04/08 04:40:31;;;;;;;;;;;;;;;-144.99;100.00;52329.88;5028918;23;19983;-71
2024/04/08 04:42:57;;;;;;;;;;;;;;;-144.99;100.00;52403.25;5032408;28;19932;-72
2024/04/08 04:45:23;;;;;;;;;;;;;;;-144.99;100.00;52321.72;5027958;28;19956;-72
2024/04/08 04:47:50;;;;;;;;;;;;;;;-144.99;100.00;52329.88;5030447;28;19956;-71
2024/04/08 04:50:16;;;;;;;;;;;;;;;-144.99;100.00;52321.72;5030452;28;19933;-72
2024/04/08 04:52:44;;;;;;;;;;;;;;;-144.99;100.00;52336.00;5031141;28;19925;-72
2024/04/08 04:55:10;;;;;;;;;;;;;;;-144.99;100.00;52333.94;5029838;28;19968;-72
2024/04/08 04:57:36;;;;;;;;;;;;;;;-144.99;100.00;52362.50;5030150;28;19932;-72
2024/04/08 05:00:04;;;;;;;;;;;;;;;-144.99;100.00;52344.16;5025946;28;20629;-72
2024/04/08 05:02:31;;;;;;;;;;;;;;;-144.99;100.00;52305.41;5030426;28;20028;-71
2024/04/08 05:04:56;;;;;;;;;;;;;;;-144.99;100.00;52329.88;5028391;28;19998;-72
2024/04/08 05:07:24;;;;;;;;;;;;;;;-144.99;100.00;52301.34;5030504;28;19929;-76
2024/04/08 05:09:51;;;;;;;;;;;;;;;-144.99;100.00;52303.38;5030610;28;20498;-76
2024/04/08 05:12:17;;;;;;;;;;;;;;;-144.99;100.00;52321.72;5022831;28;19925;-76
2024/04/08 05:14:44;;;;;;;;;;;;;;;-144.99;100.00;52338.03;5038927;28;20283;-76
2024/04/08 05:17:09;;;;;;;;;;;;;;;-144.99;100.00;52295.22;5035999;28;20363;-73
2024/04/08 05:19:36;;;;;;;;;;;;;;;-144.99;100.00;52333.94;5034890;28;19994;-73
2024/04/08 05:22:03;;;;;;;;;;;;;;;-144.99;100.00;52325.81;5028400;28;20437;-72
2024/04/08 05:24:31;;;;;;;;;;;;;;;-144.99;100.00;52327.84;5026007;28;20023;-73
2024/04/08 05:26:56;;;;;;;;;;;;;;;-144.99;100.00;52358.41;5028799;28;19929;-73
2024/04/08 05:29:23;;;;;;;;;;;;;;;-144.99;100.00;52329.88;4334113;28;10000726;-71
2024/04/08 05:31:49;;;;;;;;;;;;;;;-144.99;100.00;52325.81;5024094;28;19995;-72
2024/04/08 05:34:16;;;;;;;;;;;;;;;-144.99;100.00;52325.81;5022603;28;19998;-73
2024/04/08 05:36:41;;;;;;;;;;;;;;;-144.99;100.00;52325.81;5027718;28;20020;-73
2024/04/08 05:39:08;;;;;;;;;;;;;;;-144.99;100.00;52333.94;5024780;28;20044;-73
2024/04/08 05:41:35;;;;;;;;;;;;;;;-144.99;100.00;52346.19;5027087;28;20308;-73
2024/04/08 05:44:01;;;;;;;;;;;;;;;-144.99;100.00;52325.81;5024384;28;19971;-73
2024/04/08 05:46:27;;;;;;;;;;;;;;;-144.99;100.00;52321.72;5021799;28;20603;-72
2024/04/08 05:48:53;;;;;;;;;;;;;;;-144.99;100.00;52374.72;5026554;28;19933;-72
2024/04/08 05:51:19;;;;;;;;;;;;;;;-144.99;100.00;52329.88;5023980;28;19929;-74
2024/04/08 05:53:45;;;;;;;;;;;;;;;-144.99;100.00;52364.53;5025238;28;20030;-73
2024/04/08 05:56:11;;;;;;;;;;;;;;;-144.99;100.00;52333.94;5019222;28;19995;-74
2024/04/08 05:58:38;;;;;;;;;;;;;;;-144.99;100.00;52317.66;5028061;28;20342;-73
2024/04/08 06:01:04;;;;;;;;;;;;;;;-144.99;100.00;52305.41;5024264;28;20427;-72
2024/04/08 06:03:31;;;;;;;;;;;;;;;-144.99;100.00;52336.00;5027795;28;20023;-72
2024/04/08 06:05:58;;;;;;;;;;;;;;;-144.99;100.00;52342.09;5026427;28;20313;-73
2024/04/08 06:08:24;;;;;;;;;;;;;;;-144.99;100.00;52325.81;5027293;28;20118;-74
2024/04/08 06:10:50;;;;;;;;;;;;;;;-144.99;100.00;52297.25;5020347;28;19952;-74
2024/04/08 06:13:17;;;;;;;;;;;;;;;-144.99;100.00;52295.22;5029132;28;19984;-73
2024/04/08 06:15:44;;;;;;;;;;;;;;;-144.99;100.00;52319.69;5025967;28;19964;-73
2024/04/08 06:18:10;;;;;;;;;;;;;;;-144.99;100.00;52319.69;5028042;28;19929;-72
2024/04/08 06:20:36;;;;;;;;;;;;;;;-144.99;100.00;52321.72;5028316;28;19983;-75
2024/04/08 06:23:02;;;;;;;;;;;;;;;-144.99;100.00;52313.56;5027603;28;19937;-72
2024/04/08 06:25:28;;;;;;;;;;;;;;;-144.99;100.00;52317.66;5024846;28;19936;-71
2024/04/08 06:27:54;;;;;;;;;;;;;;;-144.99;100.00;52301.34;5026646;28;19937;-72
2024/04/08 06:30:20;;;;;;;;;;;;;;;-144.99;100.00;52325.81;5026730;28;20020;-70
2024/04/08 06:32:49;;;;;;;;;;;;;;;-144.99;100.00;52338.03;5027194;28;20430;-71
2024/04/08 06:35:15;;;;;;;;;;;;;;;-144.99;100.00;52303.38;5019223;28;20031;-71
2024/04/08 06:37:42;;;;;;;;;;;;;;;-144.99;100.00;52293.19;5023899;28;20400;-70
2024/04/08 06:40:09;;;;;;;;;;;;;;;-144.99;100.00;52313.56;5025929;28;19929;-71
2024/04/08 06:42:35;;;;;;;;;;;;;;;-144.99;100.00;52317.66;5027326;28;19929;-71
2024/04/08 06:45:01;;;;;;;;;;;;;;;-144.99;100.00;52358.41;5025995;28;20016;-71
2024/04/08 06:47:28;;;;;;;;;;;;;;;-144.99;100.00;52313.56;5023956;28;20044;-70
2024/04/08 06:49:56;;;;;;;;;;;;;;;-144.99;100.00;52297.25;5027381;28;20026;-71
2024/04/08 06:52:22;;;;;;;;;;;;;;;-144.99;100.00;52276.88;5027178;28;19925;-72
2024/04/08 06:54:48;;;;;;;;;;;;;;;-144.99;100.00;52338.03;5022442;28;20048;-71
2024/04/08 06:57:14;;;;;;;;;;;;;;;-144.99;100.00;52313.56;5026161;28;20019;-71
2024/04/08 06:59:40;;;;;;;;;;;;;;;-144.99;100.00;52342.09;5023937;28;19925;-71
2024/04/08 07:02:06;;;;;;;;;;;;;;;-144.99;100.00;52268.72;5018492;28;20750;-71
2024/04/08 07:04:32;;;;;;;;;;;;;;;-144.99;100.00;52301.34;5025524;28;19933;-73
2024/04/08 07:07:00;;;;;;;;;;;;;;;-144.99;100.00;52331.91;5024956;28;19982;-71
2024/04/08 07:09:27;;;;;;;;;;;;;;;-144.99;100.00;52305.41;5022333;28;19988;-72
2024/04/08 07:11:53;;;;;;;;;;;;;;;-144.99;100.00;52321.72;5036520;28;19925;-72
2024/04/08 07:14:19;;;;;;;;;;;;;;;-144.99;100.00;52319.69;5034945;28;20312;-73
2024/04/08 07:16:46;;;;;;;;;;;;;;;-144.99;100.00;52342.09;5028729;28;20122;-73
2024/04/08 07:19:11;;;;;;;;;;;;;;;-144.99;100.00;52321.72;5027365;28;19933;-72
2024/04/08 07:21:38;;;;;;;;;;;;;;;-144.99;100.00;52317.66;5024777;28;19933;-71
2024/04/08 07:24:07;;;;;;;;;;;;;;;-144.99;100.00;52287.06;5019179;28;19937;-71
2024/04/08 07:26:33;;;;;;;;;;;;;;;-144.99;100.00;52309.50;5023315;28;20039;-71
2024/04/08 07:28:59;;;;;;;;;;;;;;;-144.99;100.00;52313.56;5025105;28;19951;-73
2024/04/08 07:31:25;;;;;;;;;;;;;;;-144.99;100.00;52254.47;5026291;28;20490;-64
2024/04/08 07:33:51;;;;;;;;;;;;;;;-144.99;100.00;52285.03;5021621;28;19929;-66
2024/04/08 07:36:17;;;;;;;;;;;;;;;-144.99;100.00;52272.81;5023791;28;20444;-65
2024/04/08 07:38:43;;;;;;;;;;;;;;;-144.99;100.00;52297.25;5024088;28;19968;-66
2024/04/08 07:41:11;;;;;;;;;;;;;;;-144.99;100.00;52305.41;5025650;28;20388;-66
2024/04/08 07:43:37;;;;;;;;;;;;;;;-144.99;100.00;52297.25;5026534;28;20016;-67
2024/04/08 07:46:04;;;;;;;;;;;;;;;-144.99;100.00;52240.19;5019699;28;20032;-66
2024/04/08 07:48:29;;;;;;;;;;;;;;;-144.99;99.34;52244.28;5025134;28;19983;-66
2024/04/08 07:50:56;;;;;;;;;;;;;;;-144.99;97.83;52248.34;5026269;28;19929;-66
2024/04/08 07:53:22;;;;;;;;;;;;;;;-144.99;96.03;52256.50;5026192;28;19933;-68
2024/04/08 07:55:48;;;;;;;;;;;;;;;-144.99;94.61;52276.88;5025869;28;20418;-69
2024/04/08 07:58:15;;;;;;;;;;;;;;;-144.99;93.82;52264.66;5018866;28;20187;-68
2024/04/08 08:00:42;;;;;;;;;;;;;;;-144.99;94.36;52256.50;5020907;28;19925;-68
2024/04/08 08:03:07;;;;;;;;;;;;;;;-144.99;93.29;52293.19;5025895;28;19987;-69
2024/04/08 08:05:33;;;;;;;;;;;;;;;-144.99;92.89;52301.34;5025257;28;20387;-68
2024/04/08 08:08:00;;;;;;;;;;;;;;;-144.99;93.28;52268.72;5017844;28;20368;-68
2024/04/08 08:10:27;;;;;;;;;;;;;;;-144.99;93.26;52301.34;5030949;28;20028;-68
2024/04/08 08:12:53;;;;;;;;;;;;;;;-144.99;93.51;52297.25;5029764;28;20496;-68
2024/04/08 08:15:21;;;;;;;;;;;;;;;-144.99;93.47;52276.88;5029836;28;20031;-68
2024/04/08 08:17:49;;;;;;;;;;;;;;;-144.99;94.14;52242.22;5025923;28;20030;-68
2024/04/08 08:20:16;;;;;;;;;;;;;;;-144.99;92.96;52250.38;5022190;28;19937;-68
2024/04/08 08:22:42;;;;;;;;;;;;;;;-144.99;89.84;52256.50;5029943;28;20287;-69
2024/04/08 08:25:10;;;;;;;;;;;;;;;-144.99;90.16;52258.53;5029703;28;19986;-69
2024/04/08 08:27:36;;;;;;;;;;;;;;;-144.99;88.36;52234.09;5028299;28;20369;-69
2024/04/08 08:30:03;;;;;;;;;;;;;;;-144.99;86.30;52240.19;5030172;28;19936;-69
2024/04/08 08:32:30;;;;;;;;;;;;;;;-144.99;85.52;52252.44;5029476;28;19961;-69
2024/04/08 08:34:57;;;;;;;;;;;;;;;-144.99;83.70;52236.13;5030220;28;19936;-69
2024/04/08 08:37:23;;;;;;;;;;;;;;;-144.99;81.05;52197.41;5020173;28;20291;-69
2024/04/08 08:39:50;;;;;;;;;;;;;;;-144.99;79.82;52238.16;5026864;28;20016;-69
2024/04/08 08:42:19;;;;;;;;;;;;;;;-144.99;79.33;52203.50;5025668;28;20038;-69
2024/04/08 08:44:48;;;;;;;;;;;;;;;-144.99;77.75;52227.97;5029453;28;19937;-69
2024/04/08 08:47:15;;;;;;;;;;;;;;;-144.99;75.42;52211.66;5029424;28;20018;-69
2024/04/08 08:49:42;;;;;;;;;;;;;;;-144.99;75.06;52197.41;5029160;28;19929;-69
2024/04/08 08:52:10;;;;;;;;;;;;;;;-144.99;74.61;52223.88;5029106;28;20294;-68
2024/04/08 08:54:36;;;;;;;;;;;;;;;-144.99;73.63;52230.00;5028783;28;19933;-68
2024/04/08 08:57:03;;;;;;;;;;;;;;;-144.99;72.10;52203.50;5028456;28;19929;-69
2024/04/08 08:59:29;;;;;;;;;;;;;;;-144.99;69.84;52223.88;5026669;28;19929;-69
2024/04/08 09:01:58;;;;;;;;;;;;;;;-144.99;71.47;52240.19;5024367;28;19932;-68
2024/04/08 09:04:26;;;;;;;;;;;;;;;-144.99;69.81;52223.88;5029105;28;19960;-69
2024/04/08 09:06:54;;;;;;;;;;;;;;;-144.99;68.80;52227.97;5029160;28;19929;-69
2024/04/08 09:09:20;;;;;;;;;;;;;;;-144.99;68.29;52240.19;5029548;28;19929;-69
2024/04/08 09:11:47;;;;;;;;;;;;;;;-144.99;67.64;52219.81;5029775;28;20348;-69
2024/04/08 09:14:12;;;;;;;;;;;;;;;-144.99;66.94;52234.09;5020513;28;20020;-70
2024/04/08 09:16:38;;;;;;;;;;;;;;;-144.99;65.75;52193.31;5029579;28;20019;-70
2024/04/08 09:19:04;;;;;;;;;;;;;;;-144.99;64.50;52189.25;5025285;28;19969;-70
2024/04/08 09:21:31;;;;;;;;;;;;;;;-144.99;62.74;52158.66;5016798;28;19975;-70
2024/04/08 09:24:05;;;;;;;;;;;;;;;-144.99;62.87;52191.28;5027199;28;20052;-70
2024/04/08 09:26:32;;;;;;;;;;;;;;;-144.99;63.35;52191.28;5025174;28;20459;-69
2024/04/08 09:28:58;;;;;;;;;;;;;;;-144.99;62.67;52205.53;5027903;28;19987;-69
2024/04/08 09:31:25;;;;;;;;;;;;;;;-144.99;62.54;52207.59;5028265;28;19960;-70
2024/04/08 09:33:51;;;;;;;;;;;;;;;-144.99;62.96;52191.28;5027983;28;20019;-69
2024/04/08 09:36:18;;;;;;;;;;;;;;;-144.99;62.96;52199.44;5028818;28;20055;-69
2024/04/08 09:38:44;;;;;;;;;;;;;;;-144.99;62.81;52199.44;5026394;28;20016;-70
2024/04/08 09:41:13;;;;;;;;;;;;;;;-144.99;61.99;52213.69;5023898;28;20077;-69
2024/04/08 09:43:39;;;;;;;;;;;;;;;-144.99;61.75;52181.09;5024230;28;20362;-70
2024/04/08 09:46:05;;;;;;;;;;;;;;;-144.99;61.33;52164.78;5028674;28;20057;-70
2024/04/08 09:48:32;;;;;;;;;;;;;;;-144.99;60.60;52215.75;5027995;28;19968;-70
2024/04/08 09:50:59;;;;;;;;;;;;;;;-144.99;60.86;52223.88;5019657;28;19929;-70
2024/04/08 09:53:24;;;;;;;;;;;;;;;-144.99;60.63;52187.19;5028642;28;19968;-69
2024/04/08 09:55:54;;;;;;;;;;;;;;;-144.99;61.33;52189.25;5028693;28;19968;-70
2024/04/08 09:58:22;;;;;;;;;;;;;;;-144.99;61.50;52248.34;5027330;28;20035;-71
2024/04/08 10:00:50;;;;;;;;;;;;;;;-144.99;61.82;52223.88;5027508;28;19939;-69
2024/04/08 10:03:16;;;;;;;;;;;;;;;-144.99;61.73;52223.88;5027806;28;19998;-70
2024/04/08 10:05:43;;;;;;;;;;;;;;;-144.99;62.05;52179.06;5029746;28;20370;-69
2024/04/08 10:08:09;;;;;;;;;;;;;;;-144.99;61.60;52213.69;5028408;28;20172;-69
2024/04/08 10:10:36;;;;;;;;;;;;;;;-144.99;61.92;52203.50;5027965;28;19968;-69
2024/04/08 10:13:02;;;;;;;;;;;;;;;-144.99;61.76;52199.44;5027697;28;20016;-70
2024/04/08 10:15:31;;;;;;;;;;;;;;;-144.99;61.84;52203.50;5028324;28;20053;-71
2024/04/08 10:17:57;;;;;;;;;;;;;;;-144.99;61.13;52181.09;5027341;28;19936;-70
2024/04/08 10:20:24;;;;;;;;;;;;;;;-144.99;61.08;52227.97;5027685;28;19926;-70
2024/04/08 10:22:51;;;;;;;;;;;;;;;-144.99;61.77;52240.19;5027153;28;19977;-69
2024/04/08 10:25:35;;;;;;;;;;;;;;;-144.99;61.85;52223.88;5027641;28;19975;-69
2024/04/08 10:28:03;;;;;;;;;;;;;;;-144.99;62.06;52203.50;5021947;28;19968;-71
2024/04/08 10:32:12;;;;;;;;;;;;;;;-144.99;61.86;52197.41;5518801;25;19935;-69
2024/04/08 10:34:39;;;;;;;;;;;;;;;-144.99;60.96;52183.13;5522335;25;19943;-70
2024/04/08 10:37:07;;;;;;;;;;;;;;;-144.99;60.11;52119.94;5529318;25;19935;-69
2024/04/08 10:42:18;;;;;;;;;;;;;;;-144.99;57.12;52174.97;5490847;25;19939;-68
2024/04/08 10:44:44;;;;;;;;;;;;;;;-144.99;56.74;52187.19;5478754;26;20315;-68
2024/04/08 10:47:15;;;;;;;;;;;;;;;-144.99;56.46;52162.75;5494353;26;19928;-69
2024/04/08 10:49:41;;;;;;;;;;;;;;;-144.99;56.23;52154.59;5479616;26;19943;-68
2024/04/08 10:52:13;;;;;;;;;;;;;;;-144.99;56.10;52209.63;5483740;25;20369;-68
2024/04/08 10:54:39;;;;;;;;;;;;;;;-144.99;56.52;52223.88;5487302;26;20045;-68
2024/04/08 10:57:08;;;;;;;;;;;;;;;-144.99;56.77;52248.34;5482471;26;19935;-68
2024/04/08 10:59:34;;;;;;;;;;;;;;;-144.99;57.50;52232.03;5487597;26;19928;-68
2024/04/08 11:02:03;;;;;;;;;;;;;;;-144.99;57.81;52246.31;5479153;25;19996;-68
2024/04/08 11:04:31;;;;;;;;;;;;;;;-144.99;58.07;52242.22;5473479;26;19928;-68
2024/04/08 11:07:00;;;;;;;;;;;;;;;-144.99;58.64;52266.69;5464895;26;19935;-68
2024/04/08 11:09:26;;;;;;;;;;;;;;;-144.99;59.32;52232.03;5470592;26;20473;-67
2024/04/08 11:11:56;;;;;;;;;;;;;;;-144.99;59.72;52250.38;5480420;26;20396;-68
2024/04/08 11:14:22;;;;;;;;;;;;;;;-144.99;59.19;52252.44;5489702;25;20234;-67
2024/04/08 11:16:51;;;;;;;;;;;;;;;-144.99;59.32;52266.69;5487119;26;19956;-67
2024/04/08 11:19:17;;;;;;;;;;;;;;;-144.99;59.31;52250.38;5477157;25;19944;-67
2024/04/08 11:21:48;;;;;;;;;;;;;;;-144.99;58.18;52207.59;5495715;26;19932;-67
2024/04/08 11:24:14;;;;;;;;;;;;;;;-144.99;57.69;52168.84;5478125;26;20553;-67
2024/04/08 11:26:43;;;;;;;;;;;;;;;-144.99;57.45;52121.97;5494197;26;20243;-67
2024/04/08 11:29:09;;;;;;;;;;;;;;;-144.99;56.02;52105.69;5481242;26;19995;-67
2024/04/08 11:31:37;;;;;;;;;;;;;;;-144.99;54.34;52064.91;5491903;26;19932;-67
2024/04/08 11:34:03;;;;;;;;;;;;;;;-144.99;53.59;52085.31;5480149;25;20325;-66
2024/04/08 11:36:31;;;;;;;;;;;;;;;-144.99;52.69;52089.38;5479340;25;19927;-66
2024/04/08 11:39:00;;;;;;;;;;;;;;;-144.99;52.48;52073.06;5489346;25;19928;-66
2024/04/08 11:41:28;;;;;;;;;;;;;;;-144.99;51.41;52097.53;5486259;25;19928;-70
2024/04/08 11:43:55;;;;;;;;;;;;;;;-144.99;51.41;52097.53;5465729;26;19936;-67
2024/04/08 11:46:24;;;;;;;;;;;;;;;-144.99;50.62;51997.66;5463839;26;19928;-66
2024/04/08 11:48:50;;;;;;;;;;;;;;;-144.99;49.49;52054.72;5471548;26;20234;-66
2024/04/08 11:51:18;;;;;;;;;;;;;;;-144.99;49.59;52101.59;5467678;26;19956;-67
2024/04/08 11:53:44;;;;;;;;;;;;;;;-144.99;50.69;52128.09;5472699;26;19928;-67
2024/04/08 11:56:15;;;;;;;;;;;;;;;-144.99;50.91;52093.44;5459919;26;20251;-66
2024/04/08 11:58:41;;;;;;;;;;;;;;;-144.99;51.38;52121.97;5472057;26;19928;-66
2024/04/08 12:01:10;;;;;;;;;;;;;;;-144.99;50.82;52044.53;5462772;26;20364;-66
2024/04/08 12:03:36;;;;;;;;;;;;;;;-144.99;49.83;52020.09;5459161;26;19928;-66
2024/04/08 12:06:04;;;;;;;;;;;;;;;-144.99;49.61;51995.63;5464821;26;19932;-67
2024/04/08 12:08:32;;;;;;;;;;;;;;;-144.99;49.58;52111.78;5453579;26;19928;-64
2024/04/08 12:11:01;;;;;;;;;;;;;;;-144.99;49.73;52052.69;5478605;26;19934;-64
2024/04/08 12:13:29;;;;;;;;;;;;;;;-144.99;49.86;52093.44;5476456;26;19928;-65
2024/04/08 12:15:58;;;;;;;;;;;;;;;-144.99;49.66;52195.34;5482259;26;20252;-65
2024/04/08 12:18:25;;;;;;;;;;;;;;;-144.99;51.07;52166.81;5459364;26;20366;-65
2024/04/08 12:20:54;;;;;;;;;;;;;;;-144.99;51.34;52211.66;5468971;26;19927;-64
2024/04/08 12:23:20;;;;;;;;;;;;;;;-144.99;51.32;52117.91;5465152;26;19996;-65